createdAt,value
2018-05-27T00:09:56.574Z,18.30
2018-05-27T00:30:28.752Z,18.10
2018-05-27T00:51:00.952Z,17.87
2018-05-27T01:11:33.154Z,17.63
2018-05-27T01:32:10.268Z,17.46
2018-05-27T01:52:44.619Z,17.43
2018-05-27T02:13:20.107Z,17.19
2018-05-27T02:33:56.086Z,17.04
2018-05-27T02:54:31.366Z,16.95
2018-05-27T03:15:04.476Z,16.73
2018-05-27T03:35:39.002Z,16.25
2018-05-27T03:56:11.951Z,16.30
2018-05-27T04:16:44.152Z,16.14
2018-05-27T04:37:19.429Z,16.29
2018-05-27T04:57:53.775Z,16.51
2018-05-27T05:18:26.899Z,17.08
2018-05-27T05:38:58.170Z,17.60
2018-05-27T05:59:30.372Z,17.96
2018-05-27T06:20:05.341Z,18.67
2018-05-27T06:40:36.620Z,19.48
2018-05-27T07:01:10.666Z,20.27
2018-05-27T07:21:42.290Z,20.97
2018-05-27T07:42:16.316Z,21.62
2018-05-27T08:02:48.488Z,22.28
2018-05-27T08:23:23.760Z,22.68
2018-05-27T08:43:58.732Z,22.98
2018-05-27T09:04:31.239Z,23.16
2018-05-27T09:25:09.681Z,23.84
2018-05-27T09:45:43.618Z,24.53
2018-05-27T10:06:17.327Z,24.52
2018-05-27T10:26:57.367Z,24.62
2018-05-27T10:47:30.362Z,24.80
2018-05-27T11:08:03.482Z,25.44
2018-05-27T11:46:37.352Z,25.80
2018-05-27T12:07:14.471Z,26.42
2018-05-27T12:27:51.579Z,26.97
2018-05-27T12:48:24.088Z,27.44
2018-05-27T13:08:56.319Z,27.55
2018-05-27T13:29:29.417Z,27.68
2018-05-27T13:50:04.686Z,28.13
2018-05-27T14:10:36.885Z,27.86
2018-05-27T14:31:09.085Z,26.20
2018-05-27T14:51:35.147Z,24.53
2018-05-27T15:12:12.567Z,22.95
2018-05-27T17:04:57.039Z,18.68
2018-05-27T17:07:25.325Z,18.72
2018-05-27T17:09:53.673Z,18.48
2018-05-27T17:12:21.978Z,18.34
2018-05-27T17:14:50.287Z,18.43
2018-05-27T17:17:22.071Z,18.54
2018-05-27T17:19:50.352Z,18.57
2018-05-27T17:22:19.235Z,18.67
2018-05-27T17:24:47.564Z,18.48
2018-05-27T17:27:15.927Z,18.33
2018-05-27T17:29:44.293Z,18.46
2018-05-27T17:32:12.595Z,18.50
2018-05-27T17:34:45.036Z,18.51
2018-05-27T17:37:21.156Z,18.69
2018-05-27T17:39:50.206Z,18.66
2018-05-27T17:42:18.489Z,18.58
2018-05-27T17:44:46.778Z,18.42
2018-05-27T17:47:16.024Z,18.40
2018-05-27T17:49:45.117Z,18.45
2018-05-27T17:52:13.485Z,18.48
2018-05-27T17:54:41.813Z,18.58
2018-05-27T17:57:11.024Z,18.69
2018-05-27T17:59:39.322Z,18.79
2018-05-27T18:02:07.591Z,18.78
2018-05-27T18:04:35.873Z,18.93
2018-05-27T18:07:04.181Z,18.79
2018-05-27T18:09:32.499Z,18.75
2018-05-27T18:12:01.702Z,18.63
2018-05-27T18:14:30.974Z,18.57
2018-05-27T18:16:59.253Z,18.57
2018-05-27T18:19:27.508Z,18.66
2018-05-27T18:21:56.657Z,18.77
2018-05-27T18:24:24.990Z,18.65
2018-05-27T18:26:53.301Z,18.64
2018-05-27T18:29:21.626Z,18.75
2018-05-27T18:31:49.910Z,18.65
2018-05-27T18:34:18.221Z,18.41
2018-05-27T18:36:47.277Z,18.56
2018-05-27T18:39:16.924Z,18.53
2018-05-27T18:41:45.336Z,18.40
2018-05-27T18:44:14.380Z,18.31
2018-05-27T18:46:42.670Z,18.33
2018-05-27T18:49:11.704Z,18.26
2018-05-27T18:51:40.550Z,18.40
2018-05-27T18:54:08.814Z,18.00
2018-05-27T18:56:37.137Z,17.94
2018-05-27T18:59:05.461Z,18.01
2018-05-27T19:01:33.748Z,17.89
2018-05-27T19:04:02.043Z,17.88
2018-05-27T19:06:30.337Z,17.86
2018-05-27T19:08:58.701Z,17.92
2018-05-27T19:11:27.774Z,18.07
2018-05-27T19:13:57.188Z,18.05
2018-05-27T19:16:25.738Z,18.00
2018-05-27T19:18:54.045Z,18.01
2018-05-27T19:21:22.365Z,18.01
2018-05-27T19:23:50.796Z,17.93
2018-05-27T19:26:19.234Z,18.02
2018-05-27T19:28:47.572Z,17.99
2018-05-27T19:31:15.864Z,17.95
2018-05-27T19:33:44.167Z,17.73
2018-05-27T19:36:12.439Z,17.67
2018-05-27T19:38:41.215Z,17.77
2018-05-27T19:41:09.517Z,17.80
2018-05-27T19:43:37.822Z,17.74
2018-05-27T19:46:06.103Z,17.67
2018-05-27T19:48:34.704Z,17.70
2018-05-27T19:51:03.000Z,17.58
2018-05-27T19:53:31.297Z,17.57
2018-05-27T19:55:59.589Z,17.66
2018-05-27T19:58:28.333Z,17.51
2018-05-27T20:00:56.686Z,17.49
2018-05-27T20:03:24.927Z,17.44
2018-05-27T20:05:53.271Z,17.57
2018-05-27T20:08:21.569Z,17.50
2018-05-27T20:10:49.862Z,17.47
2018-05-27T20:13:18.177Z,17.43
2018-05-27T20:15:47.402Z,17.54
2018-05-27T20:18:15.692Z,17.50
2018-05-27T20:20:44.893Z,17.58
2018-05-27T20:23:13.199Z,17.76
2018-05-27T20:25:41.547Z,17.74
2018-05-27T20:28:09.833Z,17.71
2018-05-27T20:30:38.119Z,17.88
2018-05-27T20:33:06.443Z,17.73
2018-05-27T20:35:34.715Z,17.63
2018-05-27T20:38:03.019Z,17.64
2018-05-27T20:40:31.298Z,17.69
2018-05-27T20:42:59.569Z,17.77
2018-05-27T20:45:27.873Z,17.86
2018-05-27T20:47:56.171Z,17.98
2018-05-27T20:50:25.325Z,17.93
2018-05-27T20:52:53.605Z,17.69
2018-05-27T20:55:23.804Z,17.65
2018-05-27T20:57:52.094Z,17.64
2018-05-27T21:00:20.363Z,17.68
2018-05-27T21:02:49.453Z,17.72
2018-05-27T21:05:17.729Z,17.73
2018-05-27T21:07:45.991Z,17.74
2018-05-27T21:10:14.873Z,17.68
2018-05-27T21:12:43.891Z,17.69
2018-05-27T21:15:12.197Z,17.83
2018-05-27T21:17:40.475Z,17.91
2018-05-27T21:20:09.718Z,17.86
2018-05-27T21:22:38.873Z,17.83
2018-05-27T21:25:07.144Z,17.87
2018-05-27T21:27:35.425Z,17.77
2018-05-27T21:30:03.717Z,17.70
2018-05-27T21:32:32.941Z,17.67
2018-05-27T21:35:01.249Z,17.73
2018-05-27T21:37:29.556Z,17.68
2018-05-27T21:39:57.871Z,17.51
2018-05-27T21:42:26.920Z,17.45
2018-05-27T21:44:55.227Z,17.52
2018-05-27T21:47:23.522Z,17.63
2018-05-27T21:49:51.818Z,17.65
2018-05-27T21:52:20.884Z,17.47
2018-05-27T21:54:49.164Z,17.44
2018-05-27T21:57:17.446Z,17.38
2018-05-27T21:59:45.716Z,17.29
2018-05-27T22:02:14.005Z,17.25
2018-05-27T22:04:42.303Z,17.22
2018-05-27T22:07:11.337Z,17.19
2018-05-27T22:09:39.636Z,17.23
2018-05-27T22:12:07.919Z,17.19
2018-05-27T22:14:36.240Z,17.25
2018-05-27T22:17:05.292Z,17.22
2018-05-27T22:19:33.583Z,17.23
2018-05-27T22:22:02.466Z,17.23
2018-05-27T22:24:30.769Z,17.14
2018-05-27T22:26:59.089Z,17.06
2018-05-27T22:29:27.344Z,17.02
2018-05-27T22:31:56.650Z,17.13
2018-05-27T22:34:24.943Z,17.27
2018-05-27T22:36:53.273Z,17.07
2018-05-27T22:39:21.563Z,16.95
2018-05-27T22:41:49.847Z,17.05
2018-05-27T22:44:18.919Z,17.17
2018-05-27T22:46:47.212Z,17.09
2018-05-27T22:49:17.043Z,16.94
2018-05-27T22:51:46.105Z,16.83
2018-05-27T22:54:14.364Z,16.83
2018-05-27T22:56:42.663Z,16.88
2018-05-27T22:59:10.960Z,16.95
2018-05-27T23:01:40.032Z,16.97
2018-05-27T23:04:08.292Z,16.84
2018-05-27T23:06:37.169Z,16.72
2018-05-27T23:09:05.530Z,16.68
2018-05-27T23:11:33.830Z,16.67
2018-05-27T23:14:02.122Z,16.59
2018-05-27T23:16:30.509Z,16.73
2018-05-27T23:18:58.789Z,16.67
2018-05-27T23:21:27.102Z,16.57
2018-05-27T23:23:56.155Z,16.63
2018-05-27T23:26:24.473Z,16.63
2018-05-27T23:28:52.741Z,16.71
2018-05-27T23:31:21.019Z,16.63
2018-05-27T23:33:49.330Z,16.65
2018-05-27T23:36:17.862Z,16.58
2018-05-27T23:38:47.113Z,16.55
2018-05-27T23:41:15.412Z,16.61
2018-05-27T23:43:43.698Z,16.57
2018-05-27T23:46:11.988Z,16.55
2018-05-27T23:48:40.307Z,16.54
2018-05-27T23:51:08.619Z,16.59
2018-05-27T23:53:36.895Z,16.64
2018-05-27T23:56:05.984Z,16.53
2018-05-27T23:58:37.356Z,16.48
